createdAt,value
2018-01-23T00:01:45.740Z,82.40
2018-01-23T00:04:13.334Z,82.61
2018-01-23T00:06:40.911Z,82.24
2018-01-23T00:09:08.495Z,82.52
2018-01-23T00:11:36.076Z,82.74
2018-01-23T00:14:03.642Z,82.80
2018-01-23T00:16:31.217Z,83.23
2018-01-23T00:18:58.807Z,82.55
2018-01-23T00:21:26.365Z,82.50
2018-01-23T00:23:54.236Z,82.92
2018-01-23T00:26:21.912Z,82.63
2018-01-23T00:28:49.470Z,82.33
2018-01-23T00:31:17.091Z,82.18
2018-01-23T00:33:44.639Z,82.02
2018-01-23T00:36:12.209Z,82.22
2018-01-23T00:38:39.812Z,82.17
2018-01-23T00:41:07.373Z,82.21
2018-01-23T00:43:34.953Z,82.50
2018-01-23T00:46:02.584Z,82.57
2018-01-23T00:48:30.151Z,82.42
2018-01-23T00:50:57.730Z,82.56
2018-01-23T00:53:25.346Z,82.68
2018-01-23T00:55:52.956Z,81.94
2018-01-23T00:58:20.523Z,82.71
2018-01-23T01:00:48.096Z,82.43
2018-01-23T01:03:15.713Z,82.48
2018-01-23T01:05:43.307Z,82.34
2018-01-23T01:08:10.910Z,82.64
2018-01-23T01:10:38.471Z,82.65
2018-01-23T01:13:06.086Z,82.86
2018-01-23T01:15:33.686Z,82.85
2018-01-23T01:18:01.589Z,82.62
2018-01-23T01:20:29.157Z,82.40
2018-01-23T01:22:56.738Z,82.47
2018-01-23T01:25:24.348Z,82.67
2018-01-23T01:27:52.242Z,82.65
2018-01-23T01:30:19.840Z,82.95
2018-01-23T01:32:47.772Z,82.68
2018-01-23T01:35:15.321Z,82.91
2018-01-23T01:37:42.954Z,83.20
2018-01-23T01:40:10.536Z,82.57
2018-01-23T01:42:38.088Z,82.52
2018-01-23T01:45:05.988Z,83.12
2018-01-23T01:47:33.531Z,83.28
2018-01-23T01:50:01.093Z,83.04
2018-01-23T01:52:28.697Z,83.84
2018-01-23T01:54:56.249Z,84.71
2018-01-23T01:57:24.097Z,84.58
2018-01-23T01:59:51.681Z,84.00
2018-01-23T02:02:19.237Z,83.79
2018-01-23T02:04:47.083Z,83.71
2018-01-23T02:07:14.720Z,83.15
2018-01-23T02:09:42.313Z,83.44
2018-01-23T02:12:09.946Z,83.87
2018-01-23T02:14:37.826Z,84.13
2018-01-23T02:17:05.526Z,84.26
2018-01-23T02:19:33.129Z,84.77
2018-01-23T02:22:00.683Z,86.56
2018-01-23T02:24:28.295Z,86.46
2018-01-23T02:26:55.900Z,86.43
2018-01-23T02:29:23.463Z,86.29
2018-01-23T02:31:51.065Z,86.14
2018-01-23T02:34:18.661Z,85.86
2018-01-23T02:36:46.245Z,85.99
2018-01-23T02:39:13.799Z,86.25
2018-01-23T02:41:41.393Z,86.06
2018-01-23T02:44:09.280Z,85.82
2018-01-23T02:46:37.147Z,85.70
2018-01-23T02:49:04.709Z,85.64
2018-01-23T02:51:32.288Z,85.48
2018-01-23T02:54:00.239Z,85.44
2018-01-23T02:56:27.981Z,85.35
2018-01-23T02:58:55.556Z,85.18
2018-01-23T03:01:23.435Z,85.29
2018-01-23T03:03:50.982Z,85.37
2018-01-23T03:06:18.535Z,85.37
2018-01-23T03:08:46.353Z,85.58
2018-01-23T03:11:13.977Z,85.57
2018-01-23T03:13:41.526Z,85.55
2018-01-23T03:16:09.370Z,85.54
2018-01-23T03:18:36.916Z,85.84
2018-01-23T03:21:04.470Z,85.89
2018-01-23T03:23:32.046Z,85.97
2018-01-23T03:25:59.964Z,85.99
2018-01-23T03:28:27.583Z,85.82
2018-01-23T03:30:55.174Z,86.33
2018-01-23T03:33:22.763Z,86.41
2018-01-23T03:35:50.342Z,86.52
2018-01-23T03:38:17.931Z,86.26
2018-01-23T03:40:45.853Z,86.38
2018-01-23T03:43:13.410Z,86.37
2018-01-23T03:45:40.986Z,86.40
2018-01-23T03:48:08.559Z,86.42
2018-01-23T03:50:36.146Z,86.35
2018-01-23T03:53:03.752Z,86.39
2018-01-23T03:55:31.363Z,86.33
2018-01-23T03:57:58.939Z,86.27
2018-01-23T04:00:26.556Z,85.98
2018-01-23T04:02:54.405Z,86.04
2018-01-23T04:05:22.072Z,85.88
2018-01-23T04:07:49.708Z,85.77
2018-01-23T04:10:17.278Z,85.71
2018-01-23T04:12:44.874Z,85.65
2018-01-23T04:15:12.417Z,85.54
2018-01-23T04:17:40.035Z,85.59
2018-01-23T04:20:07.619Z,85.31
2018-01-23T04:22:35.177Z,85.43
2018-01-23T04:25:02.772Z,85.65
2018-01-23T04:27:30.626Z,85.80
2018-01-23T04:29:58.226Z,85.76
2018-01-23T04:32:25.837Z,85.65
2018-01-23T04:34:53.710Z,85.55
2018-01-23T04:37:21.263Z,85.62
2018-01-23T04:39:48.836Z,85.62
2018-01-23T04:42:16.453Z,85.34
2018-01-23T04:44:44.256Z,85.51
2018-01-23T04:47:11.853Z,85.34
2018-01-23T04:49:39.449Z,85.57
2018-01-23T04:52:07.082Z,85.57
2018-01-23T04:54:34.660Z,85.56
2018-01-23T04:57:02.264Z,85.66
2018-01-23T04:59:29.859Z,85.79
2018-01-23T05:01:57.461Z,85.77
2018-01-23T05:04:25.364Z,85.81
2018-01-23T05:06:52.938Z,85.59
2018-01-23T05:09:20.511Z,85.67
2018-01-23T05:11:48.112Z,85.81
2018-01-23T05:14:15.677Z,85.82
2018-01-23T05:16:43.258Z,85.85
2018-01-23T05:19:11.139Z,85.67
2018-01-23T05:21:38.912Z,85.62
2018-01-23T05:24:06.468Z,85.77
2018-01-23T05:26:34.051Z,85.68
2018-01-23T05:29:01.904Z,85.60
2018-01-23T05:31:29.508Z,85.71
2018-01-23T05:33:57.081Z,85.83
2018-01-23T05:36:24.665Z,85.76
2018-01-23T05:38:52.243Z,85.95
2018-01-23T05:41:19.816Z,85.81
2018-01-23T05:43:47.475Z,85.80
2018-01-23T05:46:15.087Z,85.91
2018-01-23T05:48:42.655Z,85.57
2018-01-23T05:51:10.213Z,85.62
2018-01-23T05:53:37.794Z,85.52
2018-01-23T05:56:05.355Z,85.39
2018-01-23T05:58:33.019Z,85.24
2018-01-23T06:01:00.623Z,85.17
2018-01-23T06:03:28.228Z,85.21
2018-01-23T06:05:56.121Z,84.86
2018-01-23T06:08:23.993Z,85.15
2018-01-23T06:10:51.578Z,85.37
2018-01-23T06:13:19.213Z,85.61
2018-01-23T06:15:47.082Z,85.25
2018-01-23T06:18:14.668Z,85.28
2018-01-23T06:20:42.527Z,85.21
2018-01-23T06:23:10.401Z,85.30
2018-01-23T06:25:38.035Z,85.19
2018-01-23T06:28:05.593Z,85.22
2018-01-23T06:30:33.162Z,85.32
2018-01-23T06:33:00.762Z,85.05
2018-01-23T06:35:28.395Z,85.00
2018-01-23T06:37:55.952Z,85.11
2018-01-23T06:40:23.595Z,85.09
2018-01-23T06:42:51.174Z,85.10
2018-01-23T06:45:18.737Z,84.76
2018-01-23T06:47:46.329Z,84.81
2018-01-23T06:50:13.934Z,84.93
2018-01-23T06:52:41.555Z,85.00
2018-01-23T06:55:09.156Z,85.15
2018-01-23T06:57:36.732Z,85.43
2018-01-23T07:00:04.389Z,85.47
2018-01-23T07:02:32.033Z,86.10
2018-01-23T07:04:59.937Z,86.32
2018-01-23T07:07:28.070Z,86.79
2018-01-23T07:09:55.686Z,86.82
2018-01-23T07:12:23.318Z,87.17
2018-01-23T07:14:50.922Z,87.17
2018-01-23T07:17:18.530Z,87.15
2018-01-23T07:19:46.433Z,86.83
2018-01-23T07:22:14.095Z,86.68
2018-01-23T07:24:41.735Z,86.64
2018-01-23T07:27:09.304Z,86.57
2018-01-23T07:29:36.883Z,86.14
2018-01-23T07:32:04.495Z,86.16
2018-01-23T07:34:32.337Z,86.18
2018-01-23T07:36:59.942Z,86.57
2018-01-23T07:39:27.521Z,86.94
2018-01-23T07:41:55.153Z,86.95
2018-01-23T07:44:22.759Z,86.54
2018-01-23T07:46:50.359Z,86.10
2018-01-23T07:49:17.936Z,85.91
2018-01-23T07:51:45.605Z,86.10
2018-01-23T07:54:13.242Z,85.72
2018-01-23T07:56:40.862Z,85.21
2018-01-23T07:59:08.482Z,85.11
2018-01-23T08:01:36.083Z,84.93
2018-01-23T08:04:03.717Z,84.90
2018-01-23T08:06:31.344Z,84.70
2018-01-23T08:08:58.937Z,84.43
2018-01-23T08:11:26.596Z,84.20
2018-01-23T08:13:54.178Z,84.06
2018-01-23T08:16:21.843Z,83.83
2018-01-23T08:18:49.527Z,83.12
2018-01-23T08:21:17.456Z,83.14
2018-01-23T08:23:46.952Z,83.06
2018-01-23T08:26:14.768Z,82.55
2018-01-23T08:28:42.408Z,81.94
2018-01-23T08:31:10.003Z,81.98
2018-01-23T08:33:37.615Z,81.87
2018-01-23T08:36:05.196Z,82.03
2018-01-23T08:38:32.782Z,83.09
2018-01-23T08:41:00.422Z,83.39
2018-01-23T08:43:27.980Z,83.05
2018-01-23T08:45:55.541Z,83.13
2018-01-23T08:48:23.181Z,83.41
2018-01-23T08:50:50.768Z,83.44
2018-01-23T08:53:18.367Z,83.53
2018-01-23T08:55:45.985Z,83.66
2018-01-23T08:58:13.598Z,84.63
2018-01-23T09:00:41.225Z,84.23
2018-01-23T09:03:08.780Z,84.63
2018-01-23T09:05:36.367Z,84.71
2018-01-23T09:08:04.034Z,84.33
2018-01-23T09:10:31.805Z,83.87
2018-01-23T09:12:59.379Z,83.77
2018-01-23T09:15:26.986Z,83.56
2018-01-23T09:17:54.551Z,83.41
2018-01-23T09:20:22.138Z,82.85
2018-01-23T09:22:49.855Z,83.47
2018-01-23T09:25:17.457Z,83.04
2018-01-23T09:27:45.024Z,82.44
2018-01-23T09:30:12.644Z,81.58
2018-01-23T09:32:40.228Z,81.29
2018-01-23T09:35:07.816Z,81.75
2018-01-23T09:37:35.373Z,82.76
2018-01-23T09:40:02.974Z,82.73
2018-01-23T09:42:31.012Z,83.99
2018-01-23T09:44:59.061Z,85.52
2018-01-23T09:47:27.309Z,85.43
2018-01-23T09:49:54.960Z,85.44
2018-01-23T09:52:22.549Z,85.25
2018-01-23T09:54:50.133Z,84.58
2018-01-23T09:57:17.755Z,84.45
2018-01-23T09:59:45.464Z,84.82
2018-01-23T10:02:13.138Z,84.12
2018-01-23T10:04:40.735Z,83.85
2018-01-23T10:07:08.290Z,83.80
2018-01-23T10:09:35.942Z,84.82
2018-01-23T10:12:03.584Z,85.38
2018-01-23T10:14:32.355Z,84.66
2018-01-23T10:16:59.920Z,84.14
2018-01-23T10:19:27.501Z,83.43
2018-01-23T10:21:55.075Z,82.73
2018-01-23T10:24:22.998Z,82.14
2018-01-23T10:26:50.627Z,81.70
2018-01-23T10:29:18.528Z,81.81
2018-01-23T10:31:46.140Z,81.91
2018-01-23T10:34:13.717Z,81.17
2018-01-23T10:36:41.325Z,81.08
2018-01-23T10:39:08.919Z,81.27
2018-01-23T10:41:36.513Z,82.12
2018-01-23T10:44:04.127Z,81.80
2018-01-23T10:46:31.764Z,83.02
2018-01-23T10:48:59.405Z,83.62
2018-01-23T10:51:26.983Z,83.56
2018-01-23T10:53:54.551Z,83.18
2018-01-23T10:56:22.141Z,82.89
2018-01-23T10:58:49.721Z,82.18
2018-01-23T11:01:17.334Z,82.44
2018-01-23T11:03:44.943Z,82.11
2018-01-23T11:06:12.528Z,82.39
2018-01-23T11:08:40.125Z,82.09
2018-01-23T11:11:07.727Z,81.89
2018-01-23T11:13:35.549Z,82.33
2018-01-23T11:16:03.128Z,82.24
2018-01-23T11:18:30.974Z,83.35
2018-01-23T11:20:59.530Z,83.10
2018-01-23T11:23:27.092Z,83.74
2018-01-23T11:25:54.778Z,83.41
2018-01-23T11:28:22.345Z,82.77
2018-01-23T11:30:50.215Z,82.72
2018-01-23T11:33:17.745Z,82.46
2018-01-23T11:35:45.364Z,82.29
2018-01-23T11:38:12.993Z,81.76
2018-01-23T11:40:40.802Z,81.55
2018-01-23T11:43:08.626Z,80.97
2018-01-23T11:45:36.530Z,80.59
2018-01-23T11:48:04.091Z,79.92
2018-01-23T11:50:31.668Z,79.72
2018-01-23T11:52:59.604Z,80.50
2018-01-23T11:55:27.264Z,80.84
2018-01-23T11:57:54.838Z,80.38
2018-01-23T12:00:22.430Z,80.19
2018-01-23T12:02:50.053Z,80.47
2018-01-23T12:05:17.627Z,81.30
2018-01-23T12:07:45.488Z,83.34
2018-01-23T12:10:13.060Z,84.59
2018-01-23T12:12:40.654Z,84.01
2018-01-23T12:15:08.210Z,84.06
2018-01-23T12:17:36.124Z,83.95
2018-01-23T12:20:03.703Z,84.72
2018-01-23T12:22:31.340Z,84.88
2018-01-23T12:24:58.943Z,84.74
2018-01-23T12:27:26.526Z,84.80
2018-01-23T12:29:54.121Z,84.87
2018-01-23T12:32:21.739Z,85.68
2018-01-23T12:34:49.353Z,85.73
2018-01-23T12:37:16.903Z,85.79
2018-01-23T12:39:44.518Z,85.74
2018-01-23T12:42:12.089Z,85.80
2018-01-23T12:44:39.667Z,85.46
2018-01-23T12:47:07.429Z,85.63
2018-01-23T12:49:35.322Z,85.75
2018-01-23T12:52:02.933Z,85.91
2018-01-23T12:54:30.500Z,86.10
2018-01-23T12:56:58.419Z,85.97
2018-01-23T12:59:25.996Z,85.86
2018-01-23T13:01:53.841Z,86.12
2018-01-23T13:04:21.730Z,86.06
2018-01-23T13:06:49.358Z,86.33
2018-01-23T13:09:16.945Z,86.80
2018-01-23T13:11:44.579Z,86.10
2018-01-23T13:14:12.181Z,85.72
2018-01-23T13:16:39.746Z,85.51
2018-01-23T13:19:07.360Z,85.18
2018-01-23T13:21:35.252Z,85.25
2018-01-23T13:24:02.792Z,85.37
2018-01-23T13:26:30.388Z,85.42
2018-01-23T13:28:57.950Z,85.34
2018-01-23T13:31:25.619Z,85.60
2018-01-23T13:33:53.589Z,85.86
2018-01-23T13:36:21.546Z,85.72
2018-01-23T13:38:49.157Z,85.48
2018-01-23T13:41:16.719Z,85.05
2018-01-23T13:43:44.385Z,85.07
2018-01-23T13:46:12.151Z,85.23
2018-01-23T13:48:39.786Z,85.58
2018-01-23T13:51:07.377Z,85.41
2018-01-23T13:53:34.995Z,85.57
2018-01-23T13:56:02.850Z,85.79
2018-01-23T13:58:30.930Z,85.87
2018-01-23T14:00:58.499Z,86.36
2018-01-23T14:03:26.076Z,86.53
2018-01-23T14:05:53.912Z,86.94
2018-01-23T14:08:21.517Z,87.70
2018-01-23T14:10:49.342Z,87.80
2018-01-23T14:13:16.907Z,87.70
2018-01-23T14:15:44.531Z,88.16
2018-01-23T14:18:12.661Z,88.26
2018-01-23T14:20:40.256Z,88.42
2018-01-23T14:23:07.884Z,88.73
2018-01-23T14:25:35.448Z,88.79
2018-01-23T14:28:03.058Z,88.83
2018-01-23T14:30:30.649Z,89.30
2018-01-23T14:32:58.233Z,89.51
2018-01-23T14:35:25.794Z,89.60
2018-01-23T14:37:53.393Z,89.78
2018-01-23T14:40:20.948Z,89.76
2018-01-23T14:42:48.514Z,89.37
2018-01-23T14:45:16.083Z,89.46
2018-01-23T14:47:43.641Z,89.38
2018-01-23T14:50:11.251Z,89.59
2018-01-23T14:52:39.101Z,89.88
2018-01-23T14:55:06.688Z,89.93
2018-01-23T14:57:34.531Z,89.93
2018-01-23T15:00:02.121Z,90.24
2018-01-23T15:02:29.772Z,90.12
2018-01-23T15:04:57.357Z,90.20
2018-01-23T15:07:24.937Z,90.29
2018-01-23T15:09:52.534Z,90.27
2018-01-23T15:12:20.130Z,90.43
2018-01-23T15:14:47.957Z,90.00
2018-01-23T15:17:15.562Z,90.11
2018-01-23T15:19:43.166Z,90.35
2018-01-23T15:22:10.763Z,90.26
2018-01-23T15:24:38.384Z,89.90
2018-01-23T15:27:05.955Z,89.86
2018-01-23T15:29:33.541Z,89.93
2018-01-23T15:32:01.164Z,90.12
2018-01-23T15:34:28.806Z,90.28
2018-01-23T15:36:56.799Z,90.08
2018-01-23T15:39:24.449Z,90.16
2018-01-23T15:41:52.006Z,90.16
2018-01-23T15:44:20.332Z,90.09
2018-01-23T15:46:48.031Z,90.08
2018-01-23T15:49:15.680Z,90.09
2018-01-23T15:51:43.538Z,90.12
2018-01-23T15:54:11.106Z,89.90
2018-01-23T15:56:38.680Z,89.87
2018-01-23T15:59:06.274Z,89.96
2018-01-23T16:01:33.897Z,90.24
2018-01-23T16:04:01.459Z,90.46
2018-01-23T16:06:29.301Z,90.47
2018-01-23T16:08:56.893Z,90.55
2018-01-23T16:11:24.744Z,90.81
2018-01-23T16:13:52.360Z,90.87
2018-01-23T16:16:19.919Z,91.11
2018-01-23T16:18:47.510Z,91.28
2018-01-23T16:21:15.128Z,91.28
2018-01-23T16:23:42.738Z,91.38
2018-01-23T16:26:10.609Z,91.46
2018-01-23T16:28:38.209Z,91.54
2018-01-23T16:31:05.793Z,91.57
2018-01-23T16:33:33.801Z,91.83
2018-01-23T16:36:01.406Z,91.69
2018-01-23T16:38:28.979Z,91.92
2018-01-23T16:40:56.576Z,91.89
2018-01-23T16:43:24.139Z,91.75
2018-01-23T16:45:51.768Z,91.59
2018-01-23T16:48:19.423Z,91.62
2018-01-23T16:50:47.001Z,91.88
2018-01-23T16:53:14.593Z,91.79
2018-01-23T16:55:42.459Z,92.05
2018-01-23T16:58:10.023Z,91.96
2018-01-23T17:00:37.585Z,91.89
2018-01-23T17:03:05.438Z,91.87
2018-01-23T17:05:33.035Z,91.97
2018-01-23T17:08:00.598Z,92.15
2018-01-23T17:10:28.191Z,92.04
2018-01-23T17:12:55.783Z,92.16
2018-01-23T17:15:23.416Z,92.16
2018-01-23T17:17:51.321Z,92.13
2018-01-23T17:20:18.874Z,92.11
2018-01-23T17:22:46.495Z,92.28
2018-01-23T17:25:14.094Z,92.44
2018-01-23T17:27:41.689Z,92.53
2018-01-23T17:30:09.274Z,92.46
2018-01-23T17:32:37.102Z,92.35
2018-01-23T17:35:05.086Z,92.28
2018-01-23T17:37:32.670Z,91.98
2018-01-23T17:40:00.265Z,92.28
2018-01-23T17:42:27.870Z,92.39
2018-01-23T17:44:55.809Z,92.38
2018-01-23T17:47:23.546Z,92.43
2018-01-23T17:49:51.121Z,92.44
2018-01-23T17:52:19.334Z,92.69
2018-01-23T17:54:47.251Z,92.74
2018-01-23T17:57:14.897Z,92.86
2018-01-23T17:59:42.622Z,93.09
2018-01-23T18:02:10.184Z,92.96
2018-01-23T18:04:37.784Z,92.87
2018-01-23T18:07:05.472Z,92.85
2018-01-23T18:09:33.200Z,92.94
2018-01-23T18:12:00.754Z,93.12
2018-01-23T18:14:28.611Z,93.35
2018-01-23T18:16:56.199Z,93.35
2018-01-23T18:19:23.758Z,93.20
2018-01-23T18:21:51.401Z,92.99
2018-01-23T18:24:19.261Z,93.17
2018-01-23T18:26:46.817Z,93.08
2018-01-23T18:29:14.464Z,93.10
2018-01-23T18:31:42.038Z,93.21
2018-01-23T18:34:09.647Z,93.55
2018-01-23T18:36:37.270Z,93.51
2018-01-23T18:39:04.922Z,93.50
2018-01-23T18:41:32.556Z,93.65
2018-01-23T18:44:00.189Z,93.56
2018-01-23T18:46:27.797Z,93.62
2018-01-23T18:48:55.372Z,93.75
2018-01-23T18:51:22.997Z,93.86
2018-01-23T18:53:50.564Z,93.65
2018-01-23T18:56:18.112Z,93.54
2018-01-23T18:58:45.717Z,93.83
2018-01-23T19:01:13.324Z,93.85
2018-01-23T19:03:40.929Z,93.62
2018-01-23T19:06:08.800Z,93.60
2018-01-23T19:08:36.465Z,93.63
2018-01-23T19:11:04.067Z,93.66
2018-01-23T19:13:31.613Z,93.53
2018-01-23T19:15:59.207Z,93.30
2018-01-23T19:18:26.792Z,93.34
2018-01-23T19:20:54.450Z,93.23
2018-01-23T19:23:22.044Z,93.18
2018-01-23T19:25:49.672Z,93.08
2018-01-23T19:28:18.758Z,92.72
2018-01-23T19:30:46.426Z,92.68
2018-01-23T19:33:17.438Z,92.82
2018-01-23T19:35:45.470Z,92.79
2018-01-23T19:38:13.137Z,92.74
2018-01-23T19:40:40.800Z,92.55
2018-01-23T19:43:08.424Z,92.67
2018-01-23T19:45:36.030Z,92.50
2018-01-23T19:48:03.988Z,92.50
2018-01-23T19:50:31.597Z,92.39
2018-01-23T19:52:59.184Z,92.21
2018-01-23T19:55:26.800Z,92.15
2018-01-23T19:57:54.413Z,91.95
2018-01-23T20:00:22.079Z,91.83
2018-01-23T20:02:49.719Z,92.04
2018-01-23T20:05:17.295Z,92.10
2018-01-23T20:07:44.919Z,92.07
2018-01-23T20:10:12.488Z,92.07
2018-01-23T20:12:40.085Z,91.93
2018-01-23T20:15:07.721Z,91.83
2018-01-23T20:17:35.281Z,91.81
2018-01-23T20:20:03.201Z,91.76
2018-01-23T20:22:30.773Z,91.58
2018-01-23T20:24:58.358Z,91.53
2018-01-23T20:27:26.007Z,91.37
2018-01-23T20:29:53.612Z,91.44
2018-01-23T20:32:21.230Z,91.44
2018-01-23T20:34:48.806Z,91.37
2018-01-23T20:37:16.449Z,91.19
2018-01-23T20:39:44.108Z,90.81
2018-01-23T20:42:11.723Z,90.32
2018-01-23T20:44:39.346Z,90.26
2018-01-23T20:47:07.095Z,90.04
2018-01-23T20:49:34.837Z,89.91
2018-01-23T20:52:02.427Z,90.02
2018-01-23T20:54:30.073Z,89.92
2018-01-23T20:56:57.773Z,89.57
2018-01-23T20:59:25.529Z,89.31
2018-01-23T21:01:53.129Z,88.95
2018-01-23T21:04:20.741Z,88.90
2018-01-23T21:06:48.436Z,88.63
2018-01-23T21:09:16.164Z,88.65
2018-01-23T21:11:43.806Z,88.53
2018-01-23T21:14:11.407Z,88.27
2018-01-23T21:16:39.099Z,88.26
2018-01-23T21:19:06.700Z,88.18
2018-01-23T21:21:34.357Z,87.99
2018-01-23T21:24:02.033Z,88.04
2018-01-23T21:26:29.884Z,88.02
2018-01-23T21:28:57.527Z,88.03
2018-01-23T21:31:25.112Z,87.50
2018-01-23T21:33:52.724Z,87.29
2018-01-23T21:36:20.317Z,87.14
2018-01-23T21:38:47.939Z,87.34
2018-01-23T21:41:15.497Z,87.01
2018-01-23T21:43:43.112Z,86.84
2018-01-23T21:46:10.758Z,87.10
2018-01-23T21:48:38.336Z,86.80
2018-01-23T21:51:05.931Z,87.03
2018-01-23T21:53:33.556Z,87.11
2018-01-23T21:56:01.411Z,87.00
2018-01-23T21:58:29.288Z,87.28
2018-01-23T22:00:56.879Z,87.07
2018-01-23T22:03:24.447Z,87.35
2018-01-23T22:05:52.035Z,87.73
2018-01-23T22:08:19.644Z,87.58
2018-01-23T22:10:47.223Z,87.33
2018-01-23T22:13:14.893Z,87.68
2018-01-23T22:15:42.493Z,87.40
2018-01-23T22:18:10.051Z,87.30
2018-01-23T22:20:37.680Z,86.96
2018-01-23T22:23:05.438Z,86.79
2018-01-23T22:25:33.599Z,86.27
2018-01-23T22:28:01.576Z,86.02
2018-01-23T22:30:29.134Z,85.77
2018-01-23T22:32:56.739Z,86.02
2018-01-23T22:35:24.541Z,85.89
2018-01-23T22:37:52.124Z,86.10
2018-01-23T22:40:19.698Z,86.15
2018-01-23T22:42:47.276Z,86.10
2018-01-23T22:45:14.896Z,85.86
2018-01-23T22:47:42.504Z,85.83
2018-01-23T22:50:10.076Z,85.24
2018-01-23T22:52:37.785Z,85.07
2018-01-23T22:55:05.427Z,85.27
2018-01-23T22:57:33.057Z,84.94
2018-01-23T23:00:00.647Z,85.14
2018-01-23T23:02:28.246Z,84.71
2018-01-23T23:04:55.830Z,84.52
2018-01-23T23:07:23.538Z,84.58
2018-01-23T23:09:51.144Z,84.42
2018-01-23T23:12:19.197Z,84.52
2018-01-23T23:14:46.773Z,84.40
2018-01-23T23:17:14.372Z,84.59
2018-01-23T23:19:41.954Z,84.75
2018-01-23T23:22:09.534Z,84.41
2018-01-23T23:24:37.100Z,84.43
2018-01-23T23:27:04.751Z,84.35
2018-01-23T23:29:32.352Z,84.43
2018-01-23T23:32:00.009Z,84.47
2018-01-23T23:34:27.973Z,84.39
2018-01-23T23:36:55.604Z,84.58
2018-01-23T23:39:23.205Z,84.64
2018-01-23T23:41:50.742Z,84.74
2018-01-23T23:44:18.325Z,84.66
2018-01-23T23:46:45.914Z,84.61
2018-01-23T23:49:13.501Z,85.03
2018-01-23T23:51:41.077Z,84.85
2018-01-23T23:54:08.637Z,85.10
2018-01-23T23:56:36.206Z,85.68
2018-01-23T23:59:04.086Z,86.05
